Atlanta, Georgia
Traffic Map
Current Weather Conditions
Atlanta, Georgia
Broken Clouds
Broken Clouds
27°
Feels Like: 30°
Wind Chill: 27° Ceiling: 18000
Heat Index: 30° Visibility: 10mi
Dew Point: 22° Wind: 0mph
Humidity: 74% Direction: ° ()
Pressure: 30.15in Gusts: 0mph
Raw Report DataKATL 011352Z 00000KT 10SM BKN180 BKN250 27/22 A3015 RMK AO2 SLP199 T02720222 $
Traffic Incident Summary
Active as of:
Severity:
Category:
InformationThere was an issue retrieving the traffic information for this location. Please try a different location or try again shortly.
Advertisements
Track Severe Weather on mobile